sensor_id;sensor_type;location;lat;lon;timestamp;P1;durP1;ratioP1;P2;durP2;ratioP2
68858;SDS011;55864;49.238;8.092;2022-11-27T00:00:07;18.90;;;6.43;;
68858;SDS011;55864;49.238;8.092;2022-11-27T00:02:14;19.03;;;6.70;;
68858;SDS011;55864;49.238;8.092;2022-11-27T00:04:14;19.50;;;7.17;;
68858;SDS011;55864;49.238;8.092;2022-11-27T00:06:16;21.20;;;8.43;;
68858;SDS011;55864;49.238;8.092;2022-11-27T00:10:19;18.30;;;7.93;;
68858;SDS011;55864;49.238;8.092;2022-11-27T00:12:19;21.87;;;8.27;;
68858;SDS011;55864;49.238;8.092;2022-11-27T00:14:19;19.83;;;7.80;;
68858;SDS011;55864;49.238;8.092;2022-11-27T00:16:20;23.67;;;9.77;;
68858;SDS011;55864;49.238;8.092;2022-11-27T00:18:23;23.80;;;9.70;;
68858;SDS011;55864;49.238;8.092;2022-11-27T00:20:23;20.07;;;8.60;;
68858;SDS011;55864;49.238;8.092;2022-11-27T00:22:24;23.27;;;9.00;;
68858;SDS011;55864;49.238;8.092;2022-11-27T00:24:24;20.90;;;8.43;;
68858;SDS011;55864;49.238;8.092;2022-11-27T00:26:25;25.00;;;9.60;;
68858;SDS011;55864;49.238;8.092;2022-11-27T00:28:28;23.77;;;9.18;;
68858;SDS011;55864;49.238;8.092;2022-11-27T00:30:29;21.53;;;8.80;;
68858;SDS011;55864;49.238;8.092;2022-11-27T00:32:29;19.47;;;9.10;;
68858;SDS011;55864;49.238;8.092;2022-11-27T00:34:31;25.23;;;10.33;;
68858;SDS011;55864;49.238;8.092;2022-11-27T00:36:32;24.47;;;9.20;;
68858;SDS011;55864;49.238;8.092;2022-11-27T00:38:34;27.57;;;10.07;;
68858;SDS011;55864;49.238;8.092;2022-11-27T00:40:34;22.87;;;9.60;;
68858;SDS011;55864;49.238;8.092;2022-11-27T00:42:35;23.50;;;10.17;;
68858;SDS011;55864;49.238;8.092;2022-11-27T00:44:36;27.93;;;11.30;;
68858;SDS011;55864;49.238;8.092;2022-11-27T00:46:36;25.37;;;9.77;;
68858;SDS011;55864;49.238;8.092;2022-11-27T00:48:37;25.13;;;10.47;;
68858;SDS011;55864;49.238;8.092;2022-11-27T00:50:38;24.70;;;9.70;;
68858;SDS011;55864;49.238;8.092;2022-11-27T00:52:39;22.37;;;9.83;;
68858;SDS011;55864;49.238;8.092;2022-11-27T00:54:39;24.80;;;10.77;;
68858;SDS011;55864;49.238;8.092;2022-11-27T00:56:40;26.70;;;11.30;;
68858;SDS011;55864;49.238;8.092;2022-11-27T00:58:40;23.17;;;10.53;;
68858;SDS011;55864;49.238;8.092;2022-11-27T01:00:41;26.83;;;11.43;;
68858;SDS011;55864;49.238;8.092;2022-11-27T01:02:42;26.43;;;11.13;;
68858;SDS011;55864;49.238;8.092;2022-11-27T01:04:43;24.50;;;11.00;;
68858;SDS011;55864;49.238;8.092;2022-11-27T01:06:45;25.27;;;10.93;;
68858;SDS011;55864;49.238;8.092;2022-11-27T01:08:46;29.43;;;11.97;;
68858;SDS011;55864;49.238;8.092;2022-11-27T01:10:47;25.23;;;11.10;;
68858;SDS011;55864;49.238;8.092;2022-11-27T01:12:48;27.80;;;10.47;;
68858;SDS011;55864;49.238;8.092;2022-11-27T01:14:49;26.07;;;11.03;;
68858;SDS011;55864;49.238;8.092;2022-11-27T01:16:49;26.17;;;10.70;;
68858;SDS011;55864;49.238;8.092;2022-11-27T01:18:50;26.97;;;11.20;;
68858;SDS011;55864;49.238;8.092;2022-11-27T01:20:53;24.90;;;10.68;;
68858;SDS011;55864;49.238;8.092;2022-11-27T01:22:55;29.87;;;11.37;;
68858;SDS011;55864;49.238;8.092;2022-11-27T01:24:56;30.97;;;12.07;;
68858;SDS011;55864;49.238;8.092;2022-11-27T01:26:56;29.10;;;12.07;;
68858;SDS011;55864;49.238;8.092;2022-11-27T01:28:57;29.07;;;13.13;;
68858;SDS011;55864;49.238;8.092;2022-11-27T01:31:02;30.13;;;11.40;;
68858;SDS011;55864;49.238;8.092;2022-11-27T01:33:03;31.07;;;13.87;;
68858;SDS011;55864;49.238;8.092;2022-11-27T01:35:04;33.83;;;14.33;;
68858;SDS011;55864;49.238;8.092;2022-11-27T01:37:05;33.30;;;12.83;;
68858;SDS011;55864;49.238;8.092;2022-11-27T01:39:09;37.60;;;13.80;;
68858;SDS011;55864;49.238;8.092;2022-11-27T01:41:15;29.80;;;13.03;;
68858;SDS011;55864;49.238;8.092;2022-11-27T01:43:16;29.65;;;12.35;;
68858;SDS011;55864;49.238;8.092;2022-11-27T01:45:18;33.90;;;13.13;;
68858;SDS011;55864;49.238;8.092;2022-11-27T01:47:24;34.67;;;13.35;;
68858;SDS011;55864;49.238;8.092;2022-11-27T01:49:29;33.47;;;13.13;;
68858;SDS011;55864;49.238;8.092;2022-11-27T01:51:32;37.10;;;14.03;;
68858;SDS011;55864;49.238;8.092;2022-11-27T01:53:32;31.60;;;13.80;;
68858;SDS011;55864;49.238;8.092;2022-11-27T01:55:35;35.27;;;15.07;;
68858;SDS011;55864;49.238;8.092;2022-11-27T01:57:39;33.50;;;14.10;;
68858;SDS011;55864;49.238;8.092;2022-11-27T01:59:42;35.53;;;14.27;;
68858;SDS011;55864;49.238;8.092;2022-11-27T02:01:44;34.47;;;13.60;;
68858;SDS011;55864;49.238;8.092;2022-11-27T02:03:44;38.77;;;13.83;;
68858;SDS011;55864;49.238;8.092;2022-11-27T02:05:45;36.20;;;13.77;;
68858;SDS011;55864;49.238;8.092;2022-11-27T02:07:46;36.23;;;14.20;;
68858;SDS011;55864;49.238;8.092;2022-11-27T02:09:47;36.17;;;13.63;;
68858;SDS011;55864;49.238;8.092;2022-11-27T02:11:51;37.23;;;14.40;;
68858;SDS011;55864;49.238;8.092;2022-11-27T02:13:56;36.97;;;13.97;;
68858;SDS011;55864;49.238;8.092;2022-11-27T02:16:04;34.87;;;14.23;;
68858;SDS011;55864;49.238;8.092;2022-11-27T02:18:18;37.83;;;14.27;;
68858;SDS011;55864;49.238;8.092;2022-11-27T02:20:34;32.13;;;13.10;;
68858;SDS011;55864;49.238;8.092;2022-11-27T02:22:49;38.77;;;14.87;;
68858;SDS011;55864;49.238;8.092;2022-11-27T02:25:05;38.90;;;14.37;;
68858;SDS011;55864;49.238;8.092;2022-11-27T02:29:49;41.57;;;13.80;;
68858;SDS011;55864;49.238;8.092;2022-11-27T02:31:56;37.80;;;14.90;;
68858;SDS011;55864;49.238;8.092;2022-11-27T02:34:03;38.97;;;13.63;;
68858;SDS011;55864;49.238;8.092;2022-11-27T02:36:13;34.17;;;14.20;;
68858;SDS011;55864;49.238;8.092;2022-11-27T02:38:21;36.57;;;13.93;;
68858;SDS011;55864;49.238;8.092;2022-11-27T02:40:28;38.10;;;14.80;;
68858;SDS011;55864;49.238;8.092;2022-11-27T02:42:34;35.97;;;14.43;;
68858;SDS011;55864;49.238;8.092;2022-11-27T02:44:39;37.80;;;14.97;;
68858;SDS011;55864;49.238;8.092;2022-11-27T02:46:45;39.80;;;15.20;;
68858;SDS011;55864;49.238;8.092;2022-11-27T02:48:48;40.53;;;14.88;;
68858;SDS011;55864;49.238;8.092;2022-11-27T02:50:50;38.60;;;14.23;;
68858;SDS011;55864;49.238;8.092;2022-11-27T02:52:54;36.43;;;15.70;;
68858;SDS011;55864;49.238;8.092;2022-11-27T02:55:01;36.50;;;14.80;;
68858;SDS011;55864;49.238;8.092;2022-11-27T02:57:06;40.00;;;14.60;;
68858;SDS011;55864;49.238;8.092;2022-11-27T02:59:09;39.38;;;15.07;;
68858;SDS011;55864;49.238;8.092;2022-11-27T03:01:12;33.87;;;14.70;;
68858;SDS011;55864;49.238;8.092;2022-11-27T03:03:16;37.20;;;14.80;;
68858;SDS011;55864;49.238;8.092;2022-11-27T03:05:20;35.97;;;14.70;;
68858;SDS011;55864;49.238;8.092;2022-11-27T03:07:26;36.07;;;14.23;;
68858;SDS011;55864;49.238;8.092;2022-11-27T03:09:33;35.60;;;15.43;;
68858;SDS011;55864;49.238;8.092;2022-11-27T03:11:35;32.95;;;14.25;;
68858;SDS011;55864;49.238;8.092;2022-11-27T03:13:37;32.50;;;13.30;;
68858;SDS011;55864;49.238;8.092;2022-11-27T03:15:44;41.23;;;14.03;;
68858;SDS011;55864;49.238;8.092;2022-11-27T03:17:51;32.80;;;14.27;;
68858;SDS011;55864;49.238;8.092;2022-11-27T03:19:57;36.33;;;15.43;;
68858;SDS011;55864;49.238;8.092;2022-11-27T03:22:02;40.00;;;13.60;;
68858;SDS011;55864;49.238;8.092;2022-11-27T03:24:04;35.80;;;14.37;;
68858;SDS011;55864;49.238;8.092;2022-11-27T03:26:05;34.37;;;13.67;;
68858;SDS011;55864;49.238;8.092;2022-11-27T03:28:07;34.90;;;13.97;;
68858;SDS011;55864;49.238;8.092;2022-11-27T03:30:10;36.90;;;13.75;;
68858;SDS011;55864;49.238;8.092;2022-11-27T03:32:11;43.70;;;14.90;;
68858;SDS011;55864;49.238;8.092;2022-11-27T03:34:12;39.17;;;14.80;;
68858;SDS011;55864;49.238;8.092;2022-11-27T03:36:15;32.93;;;14.00;;
68858;SDS011;55864;49.238;8.092;2022-11-27T03:38:17;36.90;;;14.33;;
68858;SDS011;55864;49.238;8.092;2022-11-27T03:40:17;42.37;;;13.80;;
68858;SDS011;55864;49.238;8.092;2022-11-27T03:42:20;36.47;;;12.70;;
68858;SDS011;55864;49.238;8.092;2022-11-27T03:44:25;31.73;;;12.73;;
68858;SDS011;55864;49.238;8.092;2022-11-27T03:46:34;33.30;;;13.90;;
68858;SDS011;55864;49.238;8.092;2022-11-27T03:48:44;33.20;;;12.67;;
68858;SDS011;55864;49.238;8.092;2022-11-27T03:50:50;31.27;;;12.20;;
68858;SDS011;55864;49.238;8.092;2022-11-27T03:53:04;34.33;;;12.97;;
68858;SDS011;55864;49.238;8.092;2022-11-27T03:55:11;32.27;;;12.53;;
68858;SDS011;55864;49.238;8.092;2022-11-27T03:57:16;35.13;;;13.17;;
68858;SDS011;55864;49.238;8.092;2022-11-27T03:59:21;47.72;;;12.68;;
68858;SDS011;55864;49.238;8.092;2022-11-27T04:01:24;36.63;;;13.27;;
68858;SDS011;55864;49.238;8.092;2022-11-27T04:03:27;42.75;;;12.75;;
68858;SDS011;55864;49.238;8.092;2022-11-27T04:05:29;33.37;;;13.17;;
68858;SDS011;55864;49.238;8.092;2022-11-27T04:07:29;35.87;;;12.53;;
68858;SDS011;55864;49.238;8.092;2022-11-27T04:09:31;38.33;;;12.30;;
68858;SDS011;55864;49.238;8.092;2022-11-27T04:11:32;28.97;;;12.03;;
68858;SDS011;55864;49.238;8.092;2022-11-27T04:13:32;38.17;;;12.50;;
68858;SDS011;55864;49.238;8.092;2022-11-27T04:15:33;28.97;;;11.80;;
68858;SDS011;55864;49.238;8.092;2022-11-27T04:17:33;33.90;;;11.97;;
68858;SDS011;55864;49.238;8.092;2022-11-27T04:19:34;29.47;;;11.80;;
68858;SDS011;55864;49.238;8.092;2022-11-27T04:21:34;26.90;;;10.97;;
68858;SDS011;55864;49.238;8.092;2022-11-27T04:23:35;32.43;;;10.10;;
68858;SDS011;55864;49.238;8.092;2022-11-27T04:25:37;47.83;;;12.10;;
68858;SDS011;55864;49.238;8.092;2022-11-27T04:27:37;31.30;;;10.37;;
68858;SDS011;55864;49.238;8.092;2022-11-27T04:29:38;32.30;;;11.40;;
68858;SDS011;55864;49.238;8.092;2022-11-27T04:31:38;27.87;;;11.53;;
68858;SDS011;55864;49.238;8.092;2022-11-27T04:33:39;36.80;;;10.87;;
68858;SDS011;55864;49.238;8.092;2022-11-27T04:35:39;32.50;;;11.27;;
68858;SDS011;55864;49.238;8.092;2022-11-27T04:37:40;35.50;;;11.57;;
68858;SDS011;55864;49.238;8.092;2022-11-27T04:39:40;31.17;;;10.90;;
68858;SDS011;55864;49.238;8.092;2022-11-27T04:41:42;31.40;;;9.83;;
68858;SDS011;55864;49.238;8.092;2022-11-27T04:43:43;39.20;;;11.13;;
68858;SDS011;55864;49.238;8.092;2022-11-27T04:45:43;32.63;;;10.53;;
68858;SDS011;55864;49.238;8.092;2022-11-27T04:47:44;34.40;;;11.10;;
68858;SDS011;55864;49.238;8.092;2022-11-27T04:49:44;26.37;;;10.27;;
68858;SDS011;55864;49.238;8.092;2022-11-27T04:51:45;34.67;;;10.97;;
68858;SDS011;55864;49.238;8.092;2022-11-27T04:53:45;49.80;;;11.90;;
68858;SDS011;55864;49.238;8.092;2022-11-27T04:55:46;27.17;;;9.57;;
68858;SDS011;55864;49.238;8.092;2022-11-27T04:57:48;30.27;;;10.30;;
68858;SDS011;55864;49.238;8.092;2022-11-27T04:59:48;29.90;;;9.50;;
68858;SDS011;55864;49.238;8.092;2022-11-27T05:01:49;23.07;;;9.63;;
68858;SDS011;55864;49.238;8.092;2022-11-27T05:03:49;27.40;;;9.77;;
68858;SDS011;55864;49.238;8.092;2022-11-27T05:05:53;26.00;;;9.47;;
68858;SDS011;55864;49.238;8.092;2022-11-27T05:07:54;35.10;;;9.67;;
68858;SDS011;55864;49.238;8.092;2022-11-27T05:09:54;27.70;;;9.67;;
68858;SDS011;55864;49.238;8.092;2022-11-27T05:11:55;27.60;;;9.73;;
68858;SDS011;55864;49.238;8.092;2022-11-27T05:13:57;28.00;;;9.63;;
68858;SDS011;55864;49.238;8.092;2022-11-27T05:15:57;25.37;;;9.37;;
68858;SDS011;55864;49.238;8.092;2022-11-27T05:17:58;25.40;;;8.73;;
68858;SDS011;55864;49.238;8.092;2022-11-27T05:19:58;27.77;;;8.60;;
68858;SDS011;55864;49.238;8.092;2022-11-27T05:21:59;23.90;;;8.53;;
68858;SDS011;55864;49.238;8.092;2022-11-27T05:23:59;24.77;;;8.03;;
68858;SDS011;55864;49.238;8.092;2022-11-27T05:26:00;19.80;;;7.90;;
68858;SDS011;55864;49.238;8.092;2022-11-27T05:28:00;24.47;;;8.43;;
68858;SDS011;55864;49.238;8.092;2022-11-27T05:30:02;20.57;;;8.57;;
68858;SDS011;55864;49.238;8.092;2022-11-27T05:32:03;19.88;;;8.73;;
68858;SDS011;55864;49.238;8.092;2022-11-27T05:34:04;23.70;;;8.33;;
68858;SDS011;55864;49.238;8.092;2022-11-27T05:36:05;20.23;;;8.80;;
68858;SDS011;55864;49.238;8.092;2022-11-27T05:38:06;23.13;;;8.50;;
68858;SDS011;55864;49.238;8.092;2022-11-27T05:40:07;22.37;;;8.07;;
68858;SDS011;55864;49.238;8.092;2022-11-27T05:42:08;19.70;;;8.00;;
68858;SDS011;55864;49.238;8.092;2022-11-27T05:44:09;24.43;;;8.43;;
68858;SDS011;55864;49.238;8.092;2022-11-27T05:46:13;23.52;;;7.70;;
68858;SDS011;55864;49.238;8.092;2022-11-27T05:48:15;20.27;;;7.13;;
68858;SDS011;55864;49.238;8.092;2022-11-27T05:50:16;20.27;;;6.87;;
68858;SDS011;55864;49.238;8.092;2022-11-27T05:52:16;22.40;;;8.17;;
68858;SDS011;55864;49.238;8.092;2022-11-27T05:54:17;22.03;;;8.13;;
68858;SDS011;55864;49.238;8.092;2022-11-27T05:56:18;20.17;;;7.27;;
68858;SDS011;55864;49.238;8.092;2022-11-27T05:58:18;21.40;;;7.80;;
68858;SDS011;55864;49.238;8.092;2022-11-27T06:00:19;25.33;;;7.77;;
68858;SDS011;55864;49.238;8.092;2022-11-27T06:02:21;19.27;;;7.83;;
68858;SDS011;55864;49.238;8.092;2022-11-27T06:04:22;20.97;;;7.67;;
68858;SDS011;55864;49.238;8.092;2022-11-27T06:06:22;21.60;;;7.93;;
68858;SDS011;55864;49.238;8.092;2022-11-27T06:08:23;22.33;;;7.63;;
68858;SDS011;55864;49.238;8.092;2022-11-27T06:10:23;20.70;;;7.60;;
68858;SDS011;55864;49.238;8.092;2022-11-27T06:12:24;22.50;;;7.47;;
68858;SDS011;55864;49.238;8.092;2022-11-27T06:14:24;24.07;;;8.30;;
68858;SDS011;55864;49.238;8.092;2022-11-27T06:16:25;19.07;;;7.57;;
68858;SDS011;55864;49.238;8.092;2022-11-27T06:18:27;22.87;;;7.37;;
68858;SDS011;55864;49.238;8.092;2022-11-27T06:20:27;20.37;;;6.83;;
68858;SDS011;55864;49.238;8.092;2022-11-27T06:22:28;22.53;;;6.67;;
68858;SDS011;55864;49.238;8.092;2022-11-27T06:24:30;20.13;;;6.47;;
68858;SDS011;55864;49.238;8.092;2022-11-27T06:26:31;18.50;;;6.90;;
68858;SDS011;55864;49.238;8.092;2022-11-27T06:28:32;16.37;;;6.70;;
68858;SDS011;55864;49.238;8.092;2022-11-27T06:30:32;22.50;;;7.93;;
68858;SDS011;55864;49.238;8.092;2022-11-27T06:32:33;22.33;;;7.40;;
68858;SDS011;55864;49.238;8.092;2022-11-27T06:34:35;24.97;;;7.50;;
68858;SDS011;55864;49.238;8.092;2022-11-27T06:36:36;15.97;;;7.07;;
68858;SDS011;55864;49.238;8.092;2022-11-27T06:38:37;22.10;;;6.80;;
68858;SDS011;55864;49.238;8.092;2022-11-27T06:40:38;20.23;;;7.10;;
68858;SDS011;55864;49.238;8.092;2022-11-27T06:42:38;23.67;;;7.40;;
68858;SDS011;55864;49.238;8.092;2022-11-27T06:44:39;27.77;;;7.03;;
68858;SDS011;55864;49.238;8.092;2022-11-27T06:46:39;24.30;;;7.23;;
68858;SDS011;55864;49.238;8.092;2022-11-27T06:48:40;29.00;;;7.80;;
68858;SDS011;55864;49.238;8.092;2022-11-27T06:50:42;23.03;;;7.03;;
68858;SDS011;55864;49.238;8.092;2022-11-27T06:52:43;16.93;;;6.33;;
68858;SDS011;55864;49.238;8.092;2022-11-27T06:54:43;20.50;;;6.97;;
68858;SDS011;55864;49.238;8.092;2022-11-27T06:56:44;18.23;;;6.77;;
68858;SDS011;55864;49.238;8.092;2022-11-27T06:58:44;16.67;;;7.03;;
68858;SDS011;55864;49.238;8.092;2022-11-27T07:00:45;21.23;;;6.83;;
68858;SDS011;55864;49.238;8.092;2022-11-27T07:02:46;16.73;;;6.60;;
68858;SDS011;55864;49.238;8.092;2022-11-27T07:04:46;23.33;;;7.63;;
68858;SDS011;55864;49.238;8.092;2022-11-27T07:06:48;23.70;;;6.67;;
68858;SDS011;55864;49.238;8.092;2022-11-27T07:08:49;26.63;;;7.40;;
68858;SDS011;55864;49.238;8.092;2022-11-27T07:10:49;22.00;;;6.90;;
68858;SDS011;55864;49.238;8.092;2022-11-27T07:12:50;18.00;;;6.67;;
68858;SDS011;55864;49.238;8.092;2022-11-27T07:14:50;18.50;;;6.53;;
68858;SDS011;55864;49.238;8.092;2022-11-27T07:16:51;26.23;;;7.03;;
68858;SDS011;55864;49.238;8.092;2022-11-27T07:18:52;18.87;;;6.70;;
68858;SDS011;55864;49.238;8.092;2022-11-27T07:20:53;21.57;;;6.50;;
68858;SDS011;55864;49.238;8.092;2022-11-27T07:22:55;27.17;;;7.47;;
68858;SDS011;55864;49.238;8.092;2022-11-27T07:24:56;23.17;;;7.43;;
68858;SDS011;55864;49.238;8.092;2022-11-27T07:26:56;19.43;;;7.33;;
68858;SDS011;55864;49.238;8.092;2022-11-27T07:28:57;23.47;;;7.67;;
68858;SDS011;55864;49.238;8.092;2022-11-27T07:30:57;24.00;;;8.57;;
68858;SDS011;55864;49.238;8.092;2022-11-27T07:32:58;21.07;;;7.60;;
68858;SDS011;55864;49.238;8.092;2022-11-27T07:34:59;24.13;;;7.93;;
68858;SDS011;55864;49.238;8.092;2022-11-27T07:36:59;19.07;;;7.17;;
68858;SDS011;55864;49.238;8.092;2022-11-27T07:39:01;22.77;;;7.00;;
68858;SDS011;55864;49.238;8.092;2022-11-27T07:41:02;19.43;;;6.40;;
68858;SDS011;55864;49.238;8.092;2022-11-27T07:43:04;20.93;;;6.20;;
68858;SDS011;55864;49.238;8.092;2022-11-27T07:45:05;24.90;;;6.37;;
68858;SDS011;55864;49.238;8.092;2022-11-27T07:47:06;23.50;;;6.37;;
68858;SDS011;55864;49.238;8.092;2022-11-27T07:49:06;18.90;;;6.27;;
68858;SDS011;55864;49.238;8.092;2022-11-27T07:51:08;17.87;;;5.67;;
68858;SDS011;55864;49.238;8.092;2022-11-27T07:53:10;15.18;;;6.32;;
68858;SDS011;55864;49.238;8.092;2022-11-27T07:55:12;19.37;;;6.60;;
68858;SDS011;55864;49.238;8.092;2022-11-27T07:57:12;39.47;;;8.37;;
68858;SDS011;55864;49.238;8.092;2022-11-27T07:59:13;21.60;;;7.10;;
68858;SDS011;55864;49.238;8.092;2022-11-27T08:01:14;18.37;;;6.57;;
68858;SDS011;55864;49.238;8.092;2022-11-27T08:03:16;19.33;;;6.73;;
68858;SDS011;55864;49.238;8.092;2022-11-27T08:05:17;28.57;;;7.70;;
68858;SDS011;55864;49.238;8.092;2022-11-27T08:07:17;15.73;;;6.53;;
68858;SDS011;55864;49.238;8.092;2022-11-27T08:09:18;21.93;;;7.20;;
68858;SDS011;55864;49.238;8.092;2022-11-27T08:11:20;18.03;;;6.83;;
68858;SDS011;55864;49.238;8.092;2022-11-27T08:15:25;21.65;;;8.18;;
68858;SDS011;55864;49.238;8.092;2022-11-27T08:17:26;18.43;;;7.77;;
68858;SDS011;55864;49.238;8.092;2022-11-27T08:19:26;18.57;;;7.00;;
68858;SDS011;55864;49.238;8.092;2022-11-27T08:21:27;19.97;;;7.73;;
68858;SDS011;55864;49.238;8.092;2022-11-27T08:23:29;18.30;;;6.80;;
68858;SDS011;55864;49.238;8.092;2022-11-27T08:25:30;25.00;;;8.37;;
68858;SDS011;55864;49.238;8.092;2022-11-27T08:27:32;17.17;;;6.83;;
68858;SDS011;55864;49.238;8.092;2022-11-27T08:29:32;18.13;;;7.03;;
68858;SDS011;55864;49.238;8.092;2022-11-27T08:31:33;19.73;;;7.10;;
68858;SDS011;55864;49.238;8.092;2022-11-27T08:33:34;22.10;;;7.73;;
68858;SDS011;55864;49.238;8.092;2022-11-27T08:35:35;17.30;;;6.90;;
68858;SDS011;55864;49.238;8.092;2022-11-27T08:37:35;15.67;;;6.47;;
68858;SDS011;55864;49.238;8.092;2022-11-27T08:39:36;18.60;;;8.23;;
68858;SDS011;55864;49.238;8.092;2022-11-27T08:41:37;15.93;;;6.80;;
68858;SDS011;55864;49.238;8.092;2022-11-27T08:43:38;16.63;;;6.50;;
68858;SDS011;55864;49.238;8.092;2022-11-27T08:45:39;16.17;;;6.97;;
68858;SDS011;55864;49.238;8.092;2022-11-27T08:47:39;17.60;;;6.67;;
68858;SDS011;55864;49.238;8.092;2022-11-27T08:49:40;17.50;;;6.80;;
68858;SDS011;55864;49.238;8.092;2022-11-27T08:51:41;18.57;;;7.10;;
68858;SDS011;55864;49.238;8.092;2022-11-27T08:53:41;17.57;;;6.97;;
68858;SDS011;55864;49.238;8.092;2022-11-27T08:55:42;16.47;;;6.50;;
68858;SDS011;55864;49.238;8.092;2022-11-27T08:57:43;17.13;;;7.17;;
68858;SDS011;55864;49.238;8.092;2022-11-27T08:59:45;16.53;;;6.73;;
68858;SDS011;55864;49.238;8.092;2022-11-27T09:01:46;16.23;;;6.60;;
68858;SDS011;55864;49.238;8.092;2022-11-27T09:03:46;16.27;;;5.80;;
68858;SDS011;55864;49.238;8.092;2022-11-27T09:05:47;16.50;;;6.43;;
68858;SDS011;55864;49.238;8.092;2022-11-27T09:07:48;16.00;;;6.37;;
68858;SDS011;55864;49.238;8.092;2022-11-27T09:09:49;14.80;;;6.40;;
68858;SDS011;55864;49.238;8.092;2022-11-27T09:11:50;15.90;;;6.23;;
68858;SDS011;55864;49.238;8.092;2022-11-27T09:13:53;18.00;;;6.47;;
68858;SDS011;55864;49.238;8.092;2022-11-27T09:15:55;16.70;;;6.40;;
68858;SDS011;55864;49.238;8.092;2022-11-27T09:17:56;14.40;;;5.63;;
68858;SDS011;55864;49.238;8.092;2022-11-27T09:19:57;15.27;;;6.27;;
68858;SDS011;55864;49.238;8.092;2022-11-27T09:21:57;16.37;;;6.30;;
68858;SDS011;55864;49.238;8.092;2022-11-27T09:23:58;16.20;;;5.67;;
68858;SDS011;55864;49.238;8.092;2022-11-27T09:26:01;16.00;;;6.17;;
68858;SDS011;55864;49.238;8.092;2022-11-27T09:28:03;13.57;;;5.90;;
68858;SDS011;55864;49.238;8.092;2022-11-27T09:30:05;13.27;;;6.03;;
68858;SDS011;55864;49.238;8.092;2022-11-27T09:32:08;15.50;;;6.47;;
68858;SDS011;55864;49.238;8.092;2022-11-27T09:34:08;16.23;;;6.33;;
68858;SDS011;55864;49.238;8.092;2022-11-27T09:36:09;18.87;;;7.07;;
68858;SDS011;55864;49.238;8.092;2022-11-27T09:38:11;14.23;;;6.43;;
68858;SDS011;55864;49.238;8.092;2022-11-27T09:40:13;14.23;;;6.40;;
68858;SDS011;55864;49.238;8.092;2022-11-27T09:42:15;16.55;;;6.63;;
68858;SDS011;55864;49.238;8.092;2022-11-27T09:44:30;16.87;;;7.17;;
68858;SDS011;55864;49.238;8.092;2022-11-27T09:46:35;16.20;;;7.20;;
68858;SDS011;55864;49.238;8.092;2022-11-27T09:48:40;20.13;;;7.97;;
68858;SDS011;55864;49.238;8.092;2022-11-27T09:50:43;18.87;;;7.47;;
68858;SDS011;55864;49.238;8.092;2022-11-27T09:52:48;13.57;;;5.83;;
68858;SDS011;55864;49.238;8.092;2022-11-27T09:54:54;15.20;;;6.60;;
68858;SDS011;55864;49.238;8.092;2022-11-27T09:56:59;16.23;;;7.33;;
68858;SDS011;55864;49.238;8.092;2022-11-27T09:59:01;17.93;;;7.30;;
68858;SDS011;55864;49.238;8.092;2022-11-27T10:01:09;18.23;;;7.33;;
68858;SDS011;55864;49.238;8.092;2022-11-27T10:03:12;17.48;;;6.85;;
68858;SDS011;55864;49.238;8.092;2022-11-27T10:05:17;17.63;;;8.65;;
68858;SDS011;55864;49.238;8.092;2022-11-27T10:07:22;16.10;;;7.17;;
68858;SDS011;55864;49.238;8.092;2022-11-27T10:09:34;16.03;;;7.00;;
68858;SDS011;55864;49.238;8.092;2022-11-27T10:11:47;15.48;;;7.18;;
68858;SDS011;55864;49.238;8.092;2022-11-27T10:13:59;15.67;;;7.13;;
68858;SDS011;55864;49.238;8.092;2022-11-27T10:16:14;18.80;;;8.77;;
68858;SDS011;55864;49.238;8.092;2022-11-27T10:18:26;16.90;;;7.73;;
68858;SDS011;55864;49.238;8.092;2022-11-27T10:20:34;16.40;;;7.07;;
68858;SDS011;55864;49.238;8.092;2022-11-27T10:22:41;17.33;;;7.23;;
68858;SDS011;55864;49.238;8.092;2022-11-27T10:24:53;15.80;;;7.83;;
68858;SDS011;55864;49.238;8.092;2022-11-27T10:27:00;18.13;;;8.10;;
68858;SDS011;55864;49.238;8.092;2022-11-27T10:29:03;16.20;;;7.20;;
68858;SDS011;55864;49.238;8.092;2022-11-27T10:31:15;15.83;;;6.77;;
68858;SDS011;55864;49.238;8.092;2022-11-27T10:33:21;14.67;;;6.50;;
68858;SDS011;55864;49.238;8.092;2022-11-27T10:35:25;15.83;;;7.07;;
68858;SDS011;55864;49.238;8.092;2022-11-27T10:37:29;15.37;;;6.60;;
68858;SDS011;55864;49.238;8.092;2022-11-27T10:39:36;14.73;;;6.67;;
68858;SDS011;55864;49.238;8.092;2022-11-27T10:41:40;12.03;;;6.03;;
68858;SDS011;55864;49.238;8.092;2022-11-27T10:43:49;13.80;;;6.70;;
68858;SDS011;55864;49.238;8.092;2022-11-27T10:45:55;14.87;;;6.73;;
68858;SDS011;55864;49.238;8.092;2022-11-27T10:47:58;13.80;;;6.50;;
68858;SDS011;55864;49.238;8.092;2022-11-27T10:49:58;13.90;;;6.23;;
68858;SDS011;55864;49.238;8.092;2022-11-27T10:51:59;14.20;;;7.60;;
68858;SDS011;55864;49.238;8.092;2022-11-27T10:54:01;12.10;;;6.00;;
68858;SDS011;55864;49.238;8.092;2022-11-27T10:56:12;13.57;;;6.80;;
68858;SDS011;55864;49.238;8.092;2022-11-27T10:58:40;17.73;;;8.75;;
68858;SDS011;55864;49.238;8.092;2022-11-27T11:00:45;17.20;;;8.00;;
68858;SDS011;55864;49.238;8.092;2022-11-27T11:02:46;16.07;;;7.57;;
68858;SDS011;55864;49.238;8.092;2022-11-27T11:04:46;18.00;;;8.50;;
68858;SDS011;55864;49.238;8.092;2022-11-27T11:06:48;19.23;;;8.40;;
68858;SDS011;55864;49.238;8.092;2022-11-27T11:08:58;17.13;;;8.30;;
68858;SDS011;55864;49.238;8.092;2022-11-27T11:11:04;20.20;;;8.90;;
68858;SDS011;55864;49.238;8.092;2022-11-27T11:13:13;19.05;;;8.90;;
68858;SDS011;55864;49.238;8.092;2022-11-27T11:15:16;19.33;;;8.47;;
68858;SDS011;55864;49.238;8.092;2022-11-27T11:17:17;20.43;;;9.43;;
68858;SDS011;55864;49.238;8.092;2022-11-27T11:19:24;19.27;;;9.30;;
68858;SDS011;55864;49.238;8.092;2022-11-27T11:21:29;17.37;;;8.37;;
68858;SDS011;55864;49.238;8.092;2022-11-27T11:23:32;19.25;;;8.70;;
68858;SDS011;55864;49.238;8.092;2022-11-27T11:25:36;19.90;;;10.05;;
68858;SDS011;55864;49.238;8.092;2022-11-27T11:27:36;19.43;;;9.50;;
68858;SDS011;55864;49.238;8.092;2022-11-27T11:29:45;22.83;;;10.20;;
68858;SDS011;55864;49.238;8.092;2022-11-27T11:31:48;27.00;;;12.13;;
68858;SDS011;55864;49.238;8.092;2022-11-27T11:33:51;17.57;;;8.87;;
68858;SDS011;55864;49.238;8.092;2022-11-27T11:35:58;18.30;;;8.90;;
68858;SDS011;55864;49.238;8.092;2022-11-27T11:38:12;19.17;;;8.57;;
68858;SDS011;55864;49.238;8.092;2022-11-27T11:40:19;16.77;;;8.37;;
68858;SDS011;55864;49.238;8.092;2022-11-27T11:42:25;20.17;;;9.07;;
68858;SDS011;55864;49.238;8.092;2022-11-27T11:44:29;17.98;;;7.85;;
68858;SDS011;55864;49.238;8.092;2022-11-27T11:46:32;18.50;;;8.60;;
68858;SDS011;55864;49.238;8.092;2022-11-27T11:48:33;18.67;;;8.43;;
68858;SDS011;55864;49.238;8.092;2022-11-27T11:50:40;20.27;;;8.93;;
68858;SDS011;55864;49.238;8.092;2022-11-27T11:52:47;17.40;;;8.27;;
68858;SDS011;55864;49.238;8.092;2022-11-27T11:54:59;18.20;;;9.00;;
68858;SDS011;55864;49.238;8.092;2022-11-27T11:57:04;19.53;;;9.00;;
68858;SDS011;55864;49.238;8.092;2022-11-27T11:59:14;20.50;;;9.20;;
68858;SDS011;55864;49.238;8.092;2022-11-27T12:01:25;19.73;;;8.97;;
68858;SDS011;55864;49.238;8.092;2022-11-27T12:03:53;18.27;;;8.10;;
68858;SDS011;55864;49.238;8.092;2022-11-27T12:06:12;19.40;;;11.00;;
68858;SDS011;55864;49.238;8.092;2022-11-27T12:10:56;25.43;;;13.43;;
68858;SDS011;55864;49.238;8.092;2022-11-27T12:13:03;20.03;;;10.87;;
68858;SDS011;55864;49.238;8.092;2022-11-27T12:15:18;19.47;;;9.53;;